Sunday, November 19, 2017, 5:36 AM EST
Back to Local

KLWM, Lawrence Municipal Airport

Location: North Andover, MA, United States Lat: 42.717
Local Time: 5:36 AM EST (10:36 GMT) Lon: -71.133
Time Zone: US/Eastern Elev: 147 ft

Show me the last for .
Show Decoded

2017-11-19 04:54 METAR KLWM 190954Z AUTO 20006KT 8SM -RA FEW036 SCT048 OVC090 14/12 A2926 RMK AO2
                 RAB11 SLP910 P0002 T01440122 =
2017-11-19 03:54 METAR KLWM 190854Z AUTO 18007KT 10SM SCT026 OVC030 14/12 A2930 RMK AO2 SLP922
                 60000 T01440117 58032 =
2017-11-19 02:54 METAR KLWM 190754Z AUTO 17005KT 10SM FEW008 BKN024 OVC032 13/11 A2934 RMK AO2
                 RAB12E26 SLP936 P0000 T01330106 =
2017-11-19 02:35 METAR KLWM 190735Z AUTO 17005KT 10SM SCT008 BKN024 OVC034 12/11 A2936 RMK AO2
                 RAB12E26 P0000 T01220106 =
2017-11-19 01:54 METAR KLWM 190654Z AUTO 14003KT 10SM OVC009 11/09 A2939 RMK AO2 RAE46 CIG
                 006V013 SLP953 P0000 T01110094 =
2017-11-19 01:51 METAR KLWM 190651Z AUTO VRB04KT 10SM OVC009 11/09 A2939 RMK AO2 RAE46 CIG
                 006V013 P0000 =
2017-11-19 01:26 METAR KLWM 190626Z AUTO 00000KT 10SM -RA OVC013 11/09 A2942 RMK AO2 P0000
                 T01060089 =
2017-11-19 00:54 METAR KLWM 190554Z AUTO 00000KT 9SM -RA BKN017 OVC090 11/09 A2943 RMK AO2 SLP967
                 P0002 60007 T01060089 10106 20089 56026 =
2017-11-19 00:51 METAR KLWM 190551Z AUTO VRB03KT 8SM -RA BKN019 OVC100 11/09 A2943 RMK AO2 P0002
                 =
2017-11-18 23:54 METAR KLWM 190454Z AUTO 20004KT 9SM -RA FEW020 OVC050 11/08 A2949 RMK AO2 RAB24
                 SLP986 P0000 T01060083 401061039 =
2017-11-18 22:54 METAR KLWM 190354Z AUTO VRB04KT 10SM BKN020 OVC027 10/08 A2951 RMK AO2 RAE39
                 SLP993 P0000 T01000078 =
2017-11-18 22:28 METAR KLWM 190328Z AUTO VRB03KT 10SM -RA BKN025 OVC033 10/08 A2953 RMK AO2 P0000
                 T01000078 =
2017-11-18 22:07 METAR KLWM 190307Z AUTO 12003KT 10SM -RA FEW023 OVC031 10/08 A2954 RMK AO2 P0000
                 T01000078 =
2017-11-18 21:54 METAR KLWM 190254Z VRB03KT 10SM -RA BKN026 OVC033 10/08 A2955 RMK AO2 RAE30B46
                 SLP007 P0002 60005 T01000078 58042 =
2017-11-18 20:54 METAR KLWM 190154Z 14006KT 8SM -RA FEW026 BKN041 OVC049 09/07 A2959 RMK AO2
                 RAB04 SLP022 P0003 T00940067 =
2017-11-18 19:54 METAR KLWM 190054Z 13004KT 10SM BKN044 OVC055 09/05 A2963 RMK AO2 SLP034
                 T00890050 =
2017-11-18 18:54 METAR KLWM 182354Z VRB03KT 10SM BKN041 OVC060 08/03 A2967 RMK AO2 SLP050 60000
                 T00780028 10078 20072 56025 =
2017-11-18 17:54 METAR KLWM 182254Z 09004KT 10SM FEW034 BKN060 OVC085 07/01 A2970 RMK AO2 RAE31
                 SLP058 P0000 T00720011 =
2017-11-18 16:54 METAR KLWM 182154Z VRB04KT 10SM -RA BKN065 OVC080 07/M02 A2972 RMK AO2 RAB45
                 SLP065 P0000 T00721017 =
2017-11-18 15:54 METAR KLWM 182054Z 00000KT 10SM OVC110 08/M04 A2975 RMK AO2 SLP075 T00781039
                 56026 =
2017-11-18 14:54 METAR KLWM 181954Z 17004KT 10SM CLR 08/M05 A2977 RMK AO2 SLP081 T00781050 =
2017-11-18 13:54 METAR KLWM 181854Z VRB05KT 10SM FEW110 07/M07 A2981 RMK AO2 SLP095 T00721067 =
2017-11-18 12:54 METAR KLWM 181754Z VRB05KT 10SM CLR 08/M09 A2983 RMK AO2 SLP100 T00781094 10083
                 21039 58040 =
2017-11-18 11:54 METAR KLWM 181654Z VRB04KT 10SM CLR 07/M10 A2987 RMK AO2 SLP114 T00721100 =
2017-11-18 10:54 METAR KLWM 181554Z 20005KT 10SM CLR 06/M09 A2991 RMK AO2 SLP130 T00611094 =
2017-11-18 09:54 METAR KLWM 181454Z 00000KT 10SM CLR 04/M07 A2995 RMK AO2 SLP142 T00391072 58012
                 =
2017-11-18 08:54 METAR KLWM 181354Z 00000KT 10SM CLR 01/M07 A2995 RMK AO2 SLP145 T00111072 =
2017-11-18 07:54 METAR KLWM 181254Z 21004KT 10SM CLR M02/M07 A2998 RMK AO2 SLP154 T10171072 =
2017-11-18 06:54 METAR KLWM 181154Z 00000KT 10SM CLR M03/M08 A2998 RMK AO2 SLP154 T10281078 10000
                 21039 50000 =
2017-11-18 05:54 METAR KLWM 181054Z AUTO 00000KT 10SM CLR M02/M08 A2999 RMK AO2 SLP157 T10221083
                 =

Support USWX by starting your Amazon purchase here.